Aviation Digital Data Service (ADDS)

Output produced by METARs form (0126 UTC 29 May 2022)
found at http://www.aviationweather.gov/metar/data/
 
TAF LZSL 281930Z 2821/2906 VRB03KT CAVOK